createdAt,value
2022-12-17T00:00:50.998Z,72.35
2022-12-17T00:03:40.422Z,90.90
2022-12-17T00:06:29.369Z,96.50
2022-12-17T00:09:25.983Z,83.70
2022-12-17T00:12:13.892Z,73.20
2022-12-17T00:15:01.496Z,73.80
2022-12-17T00:17:48.001Z,71.00
2022-12-17T00:20:35.062Z,73.72
2022-12-17T00:23:23.350Z,70.15
2022-12-17T00:26:12.671Z,75.35
2022-12-17T00:28:59.699Z,72.65
2022-12-17T00:31:49.099Z,73.37
2022-12-17T00:34:35.148Z,68.38
2022-12-17T00:37:21.968Z,70.28
2022-12-17T00:40:12.003Z,71.50
2022-12-17T00:43:02.225Z,69.57
2022-12-17T00:45:49.407Z,71.72
2022-12-17T00:48:36.235Z,73.10
2022-12-17T00:51:23.119Z,76.95
2022-12-17T00:56:57.078Z,69.33
2022-12-17T00:59:46.890Z,71.30
2022-12-17T01:02:34.792Z,74.82
2022-12-17T01:05:23.887Z,69.50
2022-12-17T01:08:11.645Z,69.80
2022-12-17T01:10:59.023Z,72.47
2022-12-17T01:13:46.723Z,70.50
2022-12-17T01:16:37.058Z,70.65
2022-12-17T01:19:23.038Z,69.88
2022-12-17T01:25:01.532Z,68.20
2022-12-17T01:27:48.283Z,72.10
2022-12-17T01:30:36.721Z,73.30
2022-12-17T01:33:26.785Z,72.43
2022-12-17T01:36:14.009Z,69.80
2022-12-17T01:39:01.417Z,70.85
2022-12-17T01:41:48.952Z,70.13
2022-12-17T01:44:17.990Z,73.57
2022-12-17T01:47:06.284Z,74.45
2022-12-17T01:49:57.288Z,74.97
2022-12-17T01:52:44.831Z,75.78
2022-12-17T01:55:32.959Z,76.35
2022-12-17T01:58:19.993Z,75.78
2022-12-17T02:01:08.633Z,77.82
2022-12-17T02:03:54.640Z,76.78
2022-12-17T02:06:46.448Z,76.32
2022-12-17T02:09:40.792Z,78.97
2022-12-17T02:12:29.998Z,77.60
2022-12-17T02:15:16.114Z,77.18
2022-12-17T02:18:05.316Z,77.80
2022-12-17T02:20:54.819Z,74.72
2022-12-17T02:23:51.055Z,74.90
2022-12-17T02:26:49.389Z,76.70
2022-12-17T02:29:36.844Z,74.65
2022-12-17T02:32:24.535Z,74.40
2022-12-17T02:35:11.434Z,75.60
2022-12-17T02:38:02.170Z,73.35
2022-12-17T02:40:49.358Z,75.60
2022-12-17T02:43:39.049Z,73.97
2022-12-17T02:46:26.142Z,77.47
2022-12-17T02:49:12.848Z,75.32
2022-12-17T02:52:02.652Z,74.70
2022-12-17T02:54:49.041Z,73.70
2022-12-17T02:57:35.294Z,75.25
2022-12-17T03:00:29.579Z,72.60
2022-12-17T03:03:16.019Z,73.03
2022-12-17T03:06:04.024Z,75.55
2022-12-17T03:08:51.469Z,74.03
2022-12-17T03:11:51.794Z,72.43
2022-12-17T03:14:38.047Z,72.20
2022-12-17T03:17:29.770Z,59.55
2022-12-17T03:20:16.531Z,75.35
2022-12-17T03:23:03.922Z,73.05
2022-12-17T03:25:50.057Z,76.55
2022-12-17T03:28:37.664Z,75.40
2022-12-17T03:31:24.160Z,74.82
2022-12-17T03:34:15.634Z,72.65
2022-12-17T03:37:02.630Z,71.55
2022-12-17T03:39:52.194Z,74.20
2022-12-17T03:42:39.143Z,72.10
2022-12-17T03:45:28.700Z,71.13
2022-12-17T03:48:22.234Z,75.68
2022-12-17T03:51:08.044Z,72.47
2022-12-17T03:53:57.755Z,72.10
2022-12-17T03:56:44.344Z,71.18
2022-12-17T04:02:26.179Z,68.50
2022-12-17T04:05:19.658Z,66.25
2022-12-17T04:08:06.951Z,69.22
2022-12-17T04:10:58.259Z,68.10
2022-12-17T04:13:45.346Z,68.13
2022-12-17T04:16:32.239Z,71.15
2022-12-17T04:22:06.339Z,69.95
2022-12-17T04:24:52.872Z,69.93
2022-12-17T04:30:32.117Z,71.10
2022-12-17T04:33:19.432Z,65.07
2022-12-17T04:36:07.868Z,67.72
2022-12-17T04:38:55.358Z,65.43
2022-12-17T04:41:41.721Z,68.10
2022-12-17T04:44:31.134Z,69.10
2022-12-17T04:47:18.262Z,65.22
2022-12-17T04:50:05.236Z,64.85
2022-12-17T04:52:52.359Z,63.33
2022-12-17T04:55:38.891Z,62.70
2022-12-17T05:01:16.699Z,65.93
2022-12-17T05:04:02.980Z,66.07
2022-12-17T05:06:50.577Z,63.22
2022-12-17T05:09:37.354Z,62.90
2022-12-17T05:12:23.723Z,62.35
2022-12-17T05:15:10.807Z,59.40
2022-12-17T05:18:03.811Z,62.10
2022-12-17T05:20:49.898Z,63.75
2022-12-17T05:23:37.228Z,61.70
2022-12-17T05:26:29.146Z,64.35
2022-12-17T05:29:28.187Z,61.78
2022-12-17T05:32:17.284Z,59.75
2022-12-17T05:35:07.931Z,60.63
2022-12-17T05:37:54.090Z,60.50
2022-12-17T05:40:40.959Z,60.92
2022-12-17T05:43:28.222Z,58.25
2022-12-17T05:46:15.587Z,58.85
2022-12-17T05:49:04.983Z,60.77
2022-12-17T05:51:54.887Z,60.25
2022-12-17T05:54:42.419Z,57.90
2022-12-17T05:57:28.824Z,60.88
2022-12-17T06:00:15.784Z,58.17
2022-12-17T06:03:02.800Z,61.17
2022-12-17T06:05:50.140Z,59.03
2022-12-17T06:08:49.318Z,60.45
2022-12-17T06:11:36.971Z,61.00
2022-12-17T06:14:23.825Z,61.22
2022-12-17T06:17:11.387Z,57.25
2022-12-17T06:19:58.766Z,59.53
2022-12-17T06:22:45.171Z,58.90
2022-12-17T06:25:36.371Z,61.20
2022-12-17T06:28:23.320Z,56.22
2022-12-17T06:31:10.240Z,57.95
2022-12-17T06:33:56.960Z,57.70
2022-12-17T06:36:43.747Z,57.50
2022-12-17T06:39:31.007Z,60.97
2022-12-17T06:42:20.579Z,58.28
2022-12-17T06:45:07.641Z,59.65
2022-12-17T06:47:54.227Z,59.83
2022-12-17T06:53:27.232Z,55.67
2022-12-17T06:58:59.035Z,56.42
2022-12-17T07:01:49.232Z,59.50
2022-12-17T07:04:36.646Z,56.53
2022-12-17T07:07:23.499Z,60.33
2022-12-17T07:10:14.136Z,55.23
2022-12-17T07:13:01.512Z,60.00
2022-12-17T07:15:48.346Z,59.28
2022-12-17T07:18:37.892Z,58.72
2022-12-17T07:21:25.504Z,58.78
2022-12-17T07:24:13.271Z,58.15
2022-12-17T07:27:00.309Z,57.13
2022-12-17T07:29:46.864Z,59.85
2022-12-17T07:32:35.987Z,58.90
2022-12-17T07:35:26.608Z,56.13
2022-12-17T07:38:16.110Z,57.75
2022-12-17T07:41:03.345Z,58.58
2022-12-17T07:43:53.176Z,58.40
2022-12-17T07:46:39.967Z,57.15
2022-12-17T07:49:27.629Z,55.03
2022-12-17T07:52:19.024Z,54.85
2022-12-17T07:55:06.938Z,54.27
2022-12-17T07:57:56.059Z,54.55
2022-12-17T08:00:49.007Z,51.10
2022-12-17T08:03:38.865Z,47.97
2022-12-17T08:06:26.711Z,49.75
2022-12-17T08:09:16.093Z,45.35
2022-12-17T08:12:02.787Z,44.63
2022-12-17T08:14:50.027Z,40.15
2022-12-17T08:17:36.757Z,41.70
2022-12-17T08:20:37.740Z,42.67
2022-12-17T08:23:25.748Z,39.57
2022-12-17T08:26:15.124Z,39.40
2022-12-17T08:29:01.710Z,40.13
2022-12-17T08:34:34.783Z,36.50
2022-12-17T08:40:07.770Z,39.97
2022-12-17T08:42:57.022Z,40.10
2022-12-17T08:45:44.392Z,39.80
2022-12-17T08:48:31.399Z,40.60
2022-12-17T08:51:18.069Z,40.25
2022-12-17T08:54:04.961Z,38.00
2022-12-17T08:56:51.977Z,39.05
2022-12-17T08:59:41.656Z,39.00
2022-12-17T09:02:28.072Z,38.50
2022-12-17T09:05:14.741Z,39.75
2022-12-17T09:08:14.583Z,38.78
2022-12-17T09:11:01.210Z,42.70
2022-12-17T09:16:36.430Z,38.97
2022-12-17T09:19:23.198Z,38.45
2022-12-17T09:22:10.007Z,37.38
2022-12-17T09:24:58.007Z,37.80
2022-12-17T09:27:45.670Z,36.22
2022-12-17T09:30:31.975Z,37.28
2022-12-17T09:33:21.651Z,38.75
2022-12-17T09:36:07.750Z,38.40
2022-12-17T09:38:53.918Z,36.13
2022-12-17T09:41:41.853Z,37.10
2022-12-17T09:44:33.273Z,40.95
2022-12-17T09:47:26.328Z,37.13
2022-12-17T09:50:15.675Z,39.17
2022-12-17T09:53:01.835Z,38.70
2022-12-17T09:55:50.355Z,35.15
2022-12-17T09:58:38.045Z,36.95
2022-12-17T10:01:29.021Z,34.70
2022-12-17T10:04:21.451Z,37.20
2022-12-17T10:07:11.080Z,40.00
2022-12-17T10:09:58.013Z,34.35
2022-12-17T10:12:45.314Z,37.90
2022-12-17T10:15:31.929Z,37.95
2022-12-17T10:21:12.803Z,39.30
2022-12-17T10:24:08.103Z,42.20
2022-12-17T10:26:55.062Z,41.22
2022-12-17T10:29:47.474Z,40.33
2022-12-17T10:32:34.023Z,41.15
2022-12-17T10:35:23.427Z,39.47
2022-12-17T10:38:10.059Z,38.70
2022-12-17T10:43:46.637Z,42.00
2022-12-17T10:46:39.944Z,43.60
2022-12-17T10:49:28.566Z,47.50
2022-12-17T10:52:20.840Z,46.47
2022-12-17T10:55:07.064Z,46.70
2022-12-17T10:57:57.139Z,47.65
2022-12-17T11:00:49.735Z,43.17
2022-12-17T11:03:45.446Z,43.00
2022-12-17T11:06:38.856Z,41.53
2022-12-17T11:09:32.768Z,40.55
2022-12-17T11:12:27.118Z,41.30
2022-12-17T11:15:16.005Z,40.45
2022-12-17T11:18:11.165Z,38.97
2022-12-17T11:21:03.024Z,37.05
2022-12-17T11:23:50.099Z,38.88
2022-12-17T11:26:39.219Z,39.50
2022-12-17T11:29:27.402Z,39.95
2022-12-17T11:32:47.509Z,43.07
2022-12-17T11:35:41.058Z,36.75
2022-12-17T11:38:34.246Z,39.38
2022-12-17T11:41:24.940Z,42.13
2022-12-17T11:44:15.203Z,42.25
2022-12-17T11:47:06.290Z,42.72
2022-12-17T11:49:57.687Z,40.90
2022-12-17T11:52:49.488Z,38.83
2022-12-17T11:55:38.741Z,39.50
2022-12-17T11:58:28.940Z,42.50
2022-12-17T12:01:18.264Z,41.10
2022-12-17T12:04:08.119Z,39.30
2022-12-17T12:06:58.715Z,37.73
2022-12-17T12:09:50.234Z,37.70
2022-12-17T12:12:43.382Z,37.50
2022-12-17T12:15:36.589Z,37.13
2022-12-17T12:18:24.573Z,37.27
2022-12-17T12:21:32.419Z,38.10
2022-12-17T12:24:25.145Z,35.90
2022-12-17T12:27:27.122Z,36.75
2022-12-17T12:30:13.119Z,37.13
2022-12-17T12:33:04.356Z,37.95
2022-12-17T12:35:54.044Z,38.28
2022-12-17T12:38:46.159Z,38.20
2022-12-17T12:41:34.853Z,36.50
2022-12-17T12:44:31.766Z,36.05
2022-12-17T12:47:20.558Z,33.65
2022-12-17T12:50:09.645Z,35.10
2022-12-17T12:52:56.173Z,32.15
2022-12-17T12:55:55.132Z,33.25
2022-12-17T12:58:42.792Z,35.20
2022-12-17T13:01:32.601Z,34.10
2022-12-17T13:04:43.062Z,34.30
2022-12-17T13:07:27.578Z,34.50
2022-12-17T13:10:03.243Z,32.17
2022-12-17T13:12:42.938Z,35.78
2022-12-17T13:15:26.042Z,32.65
2022-12-17T13:18:17.396Z,31.90
2022-12-17T13:21:01.144Z,32.45
2022-12-17T13:23:34.877Z,35.40
2022-12-17T13:26:21.587Z,35.17
2022-12-17T13:29:13.618Z,36.15
2022-12-17T13:32:05.919Z,33.20
2022-12-17T13:34:49.782Z,34.13
2022-12-17T13:37:29.633Z,34.13
2022-12-17T13:40:08.056Z,33.83
2022-12-17T13:42:42.424Z,33.30
2022-12-17T13:45:18.122Z,34.20
2022-12-17T13:47:56.645Z,35.85
2022-12-17T13:50:35.297Z,34.63
2022-12-17T13:53:13.564Z,35.60
2022-12-17T13:55:52.682Z,35.45
2022-12-17T13:58:25.051Z,33.30
2022-12-17T14:01:09.976Z,34.87
2022-12-17T14:06:43.584Z,35.60
2022-12-17T14:09:18.139Z,33.70
2022-12-17T14:12:10.270Z,32.45
2022-12-17T14:14:44.068Z,34.88
2022-12-17T14:17:21.531Z,31.33
2022-12-17T14:20:01.123Z,29.20
2022-12-17T14:22:46.297Z,32.63
2022-12-17T14:25:24.966Z,33.85
2022-12-17T14:28:03.404Z,33.20
2022-12-17T14:30:56.384Z,32.22
2022-12-17T14:36:10.093Z,30.63
2022-12-17T14:38:53.347Z,31.50
2022-12-17T14:41:42.391Z,29.60
2022-12-17T14:44:23.569Z,29.45
2022-12-17T14:47:10.299Z,27.90
2022-12-17T14:49:55.759Z,28.40
2022-12-17T14:52:42.052Z,30.00
2022-12-17T14:55:55.604Z,27.30
2022-12-17T14:58:31.343Z,26.88
2022-12-17T15:01:09.282Z,24.60
2022-12-17T15:03:44.281Z,26.67
2022-12-17T15:06:19.737Z,26.33
2022-12-17T15:08:54.092Z,24.90
2022-12-17T15:11:31.137Z,25.90
2022-12-17T15:14:06.549Z,27.80
2022-12-17T15:16:40.797Z,28.73
2022-12-17T15:19:14.861Z,28.77
2022-12-17T15:21:49.577Z,26.80
2022-12-17T15:24:23.765Z,27.40
2022-12-17T15:27:00.478Z,24.85
2022-12-17T15:29:34.893Z,24.10
2022-12-17T15:32:10.075Z,26.38
2022-12-17T15:34:45.101Z,24.43
2022-12-17T15:37:25.265Z,24.20
2022-12-17T15:40:00.748Z,24.85
2022-12-17T15:42:49.849Z,24.58
2022-12-17T15:45:23.755Z,26.45
2022-12-17T15:47:58.546Z,26.20
2022-12-17T15:50:32.363Z,22.75
2022-12-17T15:53:06.552Z,24.25
2022-12-17T15:55:40.644Z,25.45
2022-12-17T15:58:19.335Z,23.65
2022-12-17T16:00:54.534Z,23.27
2022-12-17T16:03:28.416Z,22.83
2022-12-17T16:06:04.251Z,23.65
2022-12-17T16:08:40.685Z,24.83
2022-12-17T16:11:16.479Z,23.77
2022-12-17T16:13:56.911Z,21.42
2022-12-17T16:16:32.860Z,21.92
2022-12-17T16:19:07.945Z,24.90
2022-12-17T16:21:46.699Z,22.80
2022-12-17T16:24:21.309Z,23.30
2022-12-17T16:26:59.414Z,24.25
2022-12-17T16:29:34.931Z,23.30
2022-12-17T16:32:12.612Z,25.33
2022-12-17T16:34:47.074Z,26.20
2022-12-17T16:37:21.901Z,23.52
2022-12-17T16:40:00.179Z,26.15
2022-12-17T16:42:34.437Z,23.08
2022-12-17T16:45:10.233Z,25.75
2022-12-17T16:47:47.059Z,23.30
2022-12-17T16:50:21.492Z,25.75
2022-12-17T16:52:56.090Z,25.05
2022-12-17T16:55:30.372Z,25.48
2022-12-17T16:58:05.258Z,26.15
2022-12-17T17:00:39.769Z,23.15
2022-12-17T17:03:17.591Z,22.67
2022-12-17T17:05:51.511Z,23.05
2022-12-17T17:08:25.961Z,25.75
2022-12-17T17:11:01.157Z,25.27
2022-12-17T17:13:35.929Z,25.20
2022-12-17T17:16:11.514Z,22.70
2022-12-17T17:18:48.135Z,24.00
2022-12-17T17:21:30.536Z,23.53
2022-12-17T17:24:05.308Z,24.08
2022-12-17T17:26:39.784Z,23.45
2022-12-17T17:29:11.730Z,22.77
2022-12-17T17:34:42.777Z,23.08
2022-12-17T17:37:16.698Z,21.10
2022-12-17T17:39:54.209Z,23.70
2022-12-17T17:42:30.536Z,23.27
2022-12-17T17:45:06.756Z,20.83
2022-12-17T17:50:21.455Z,21.80
2022-12-17T17:52:56.960Z,22.80
2022-12-17T17:55:33.436Z,22.00
2022-12-17T17:58:11.009Z,21.73
2022-12-17T18:00:46.525Z,23.52
2022-12-17T18:03:21.724Z,21.20
2022-12-17T18:06:03.902Z,24.03
2022-12-17T18:08:39.035Z,22.80
2022-12-17T18:11:21.507Z,23.10
2022-12-17T18:13:57.029Z,26.73
2022-12-17T18:16:33.293Z,22.40
2022-12-17T18:19:10.209Z,21.85
2022-12-17T18:21:48.266Z,21.70
2022-12-17T18:24:23.613Z,20.40
2022-12-17T18:26:59.233Z,24.95
2022-12-17T18:29:36.655Z,20.60
2022-12-17T18:32:12.612Z,20.25
2022-12-17T18:37:27.367Z,19.85
2022-12-17T18:40:04.873Z,19.35
2022-12-17T18:42:53.715Z,20.40
2022-12-17T18:45:29.119Z,18.17
2022-12-17T18:48:05.381Z,15.95
2022-12-17T18:50:42.204Z,18.90
2022-12-17T18:53:20.418Z,18.48
2022-12-17T18:55:58.878Z,20.10
2022-12-17T18:58:36.038Z,21.77
2022-12-17T19:01:22.562Z,21.25
2022-12-17T19:03:57.738Z,22.08
2022-12-17T19:06:34.992Z,21.43
2022-12-17T19:09:20.962Z,20.47
2022-12-17T19:11:56.218Z,20.88
2022-12-17T19:14:36.445Z,20.52
2022-12-17T19:17:13.119Z,19.42
2022-12-17T19:19:49.172Z,20.52
2022-12-17T19:22:25.317Z,17.73
2022-12-17T19:27:38.192Z,18.92
2022-12-17T19:30:16.369Z,18.60
2022-12-17T19:32:51.985Z,19.70
2022-12-17T19:35:28.173Z,22.98
2022-12-17T19:40:43.144Z,23.00
2022-12-17T19:43:19.172Z,23.80
2022-12-17T19:45:54.514Z,25.05
2022-12-17T19:48:28.826Z,27.50
2022-12-17T19:51:02.785Z,26.17
2022-12-17T19:53:36.907Z,25.52
2022-12-17T19:56:19.266Z,24.67
2022-12-17T19:58:54.875Z,26.45
2022-12-17T20:01:30.226Z,25.85
2022-12-17T20:04:04.535Z,27.45
2022-12-17T20:06:38.694Z,28.60
2022-12-17T20:09:14.922Z,28.45
2022-12-17T20:11:52.229Z,27.35
2022-12-17T20:14:28.010Z,27.90
2022-12-17T20:17:05.258Z,26.73
2022-12-17T20:19:38.980Z,28.15
2022-12-17T20:22:13.492Z,28.80
2022-12-17T20:24:50.616Z,30.05
2022-12-17T20:27:28.157Z,30.17
2022-12-17T20:30:04.406Z,28.95
2022-12-17T20:32:39.683Z,28.70
2022-12-17T20:35:14.229Z,27.58
2022-12-17T20:37:49.927Z,29.25
2022-12-17T20:40:24.926Z,28.95
2022-12-17T20:43:04.089Z,30.77
2022-12-17T20:45:40.535Z,27.58
2022-12-17T20:48:16.542Z,27.83
2022-12-17T20:53:26.935Z,27.10
2022-12-17T20:56:05.196Z,26.70
2022-12-17T20:58:42.897Z,26.03
2022-12-17T21:01:20.726Z,28.33
2022-12-17T21:03:55.890Z,31.73
2022-12-17T21:06:32.784Z,30.77
2022-12-17T21:09:08.927Z,30.30
2022-12-17T21:14:21.538Z,27.45
2022-12-17T21:16:58.808Z,28.30
2022-12-17T21:19:34.255Z,28.30
2022-12-17T21:22:11.748Z,30.85
2022-12-17T21:24:49.888Z,29.60
2022-12-17T21:27:26.620Z,33.35
2022-12-17T21:30:10.266Z,32.17
2022-12-17T21:32:49.262Z,32.42
2022-12-17T21:35:26.944Z,30.10
2022-12-17T21:38:02.377Z,30.73
2022-12-17T21:40:36.194Z,31.13
2022-12-17T21:43:11.291Z,30.58
2022-12-17T21:45:49.478Z,31.63
2022-12-17T21:48:25.753Z,29.55
2022-12-17T21:51:01.412Z,29.03
2022-12-17T21:53:38.020Z,27.10
2022-12-17T21:56:13.646Z,27.67
2022-12-17T21:58:54.223Z,26.80
2022-12-17T22:01:34.068Z,26.55
2022-12-17T22:04:09.892Z,23.52
2022-12-17T22:06:53.615Z,24.63
2022-12-17T22:10:01.017Z,26.35
2022-12-17T22:12:50.051Z,26.50
2022-12-17T22:15:26.677Z,27.58
2022-12-17T22:18:10.160Z,26.40
2022-12-17T22:20:47.443Z,27.90
2022-12-17T22:23:22.586Z,25.45
2022-12-17T22:25:59.029Z,24.83
2022-12-17T22:28:36.205Z,25.75
2022-12-17T22:31:26.309Z,23.95
2022-12-17T22:35:12.140Z,23.73
2022-12-17T22:40:32.778Z,25.33
2022-12-17T22:44:36.311Z,24.88
2022-12-17T22:44:43.342Z,22.37
2022-12-17T22:45:59.435Z,22.95
2022-12-17T22:48:36.345Z,23.30
2022-12-17T22:51:22.900Z,24.63
2022-12-17T22:54:12.040Z,24.33
2022-12-17T22:57:31.461Z,26.95
2022-12-17T22:59:42.257Z,26.13
2022-12-17T23:02:18.249Z,26.33
2022-12-17T23:04:55.985Z,24.70
2022-12-17T23:07:35.619Z,24.92
2022-12-17T23:10:12.200Z,23.08
2022-12-17T23:12:57.842Z,21.15
2022-12-17T23:15:36.809Z,23.27
2022-12-17T23:18:14.583Z,19.90
2022-12-17T23:20:49.472Z,17.30
2022-12-17T23:23:29.615Z,19.33
2022-12-17T23:26:10.287Z,18.57
2022-12-17T23:28:45.230Z,18.70
2022-12-17T23:31:21.134Z,16.83
2022-12-17T23:33:58.476Z,17.77
2022-12-17T23:36:34.677Z,16.92
2022-12-17T23:39:13.574Z,16.87
2022-12-17T23:41:48.491Z,17.33
2022-12-17T23:44:25.090Z,17.10
2022-12-17T23:49:34.350Z,19.42
2022-12-17T23:52:10.929Z,20.55
2022-12-17T23:54:49.118Z,19.63
2022-12-17T23:57:24.946Z,20.15
2022-12-17T23:59:57.507Z,18.42
